createdAt,value
2022-08-18T00:01:16.056Z,8.65
2022-08-18T00:03:53.070Z,12.60
2022-08-18T00:06:24.932Z,8.18
2022-08-18T00:08:56.528Z,7.97
2022-08-18T00:11:24.636Z,6.90
2022-08-18T00:13:51.937Z,10.73
2022-08-18T00:16:19.152Z,7.88
2022-08-18T00:18:46.220Z,9.02
2022-08-18T00:21:13.603Z,10.10
2022-08-18T00:23:40.754Z,8.68
2022-08-18T00:26:07.895Z,9.98
2022-08-18T00:28:35.084Z,7.82
2022-08-18T00:31:05.264Z,8.02
2022-08-18T00:33:32.747Z,8.23
2022-08-18T00:35:59.871Z,9.48
2022-08-18T00:38:27.041Z,10.40
2022-08-18T00:40:55.998Z,8.10
2022-08-18T00:43:43.905Z,9.88
2022-08-18T00:46:26.198Z,8.00
2022-08-18T00:48:53.635Z,9.38
2022-08-18T00:51:33.099Z,8.30
2022-08-18T00:54:24.863Z,9.23
2022-08-18T00:56:58.114Z,8.93
2022-08-18T00:59:59.130Z,9.00
2022-08-18T01:02:36.216Z,9.95
2022-08-18T01:05:45.738Z,8.20
2022-08-18T01:08:14.758Z,8.25
2022-08-18T01:10:44.365Z,8.73
2022-08-18T01:13:12.182Z,8.73
2022-08-18T01:15:40.067Z,12.88
2022-08-18T01:18:31.238Z,9.50
2022-08-18T01:21:32.511Z,9.07
2022-08-18T01:24:04.212Z,7.85
2022-08-18T01:26:35.917Z,8.43
2022-08-18T01:29:18.863Z,10.48
2022-08-18T01:31:56.239Z,10.23
2022-08-18T01:34:28.368Z,8.82
2022-08-18T01:36:56.741Z,10.60
2022-08-18T01:41:22.760Z,10.52
2022-08-18T01:42:15.050Z,7.25
2022-08-18T01:44:42.214Z,9.13
2022-08-18T01:47:12.071Z,9.60
2022-08-18T01:49:43.231Z,9.60
2022-08-18T01:52:20.494Z,8.60
2022-08-18T01:54:49.291Z,9.45
2022-08-18T01:57:18.126Z,10.77
2022-08-18T01:59:45.484Z,9.27
2022-08-18T02:02:19.040Z,8.02
2022-08-18T02:04:47.872Z,12.55
2022-08-18T02:07:15.254Z,10.77
2022-08-18T02:09:44.038Z,8.75
2022-08-18T02:12:12.995Z,8.68
2022-08-18T02:14:40.658Z,8.32
2022-08-18T02:17:11.330Z,8.43
2022-08-18T02:19:45.835Z,10.00
2022-08-18T02:22:18.848Z,9.88
2022-08-18T02:24:47.419Z,11.65
2022-08-18T02:27:16.015Z,10.13
2022-08-18T02:29:43.446Z,12.50
2022-08-18T02:32:10.803Z,12.02
2022-08-18T02:34:37.947Z,13.98
2022-08-18T02:37:05.297Z,13.27
2022-08-18T02:39:37.923Z,12.00
2022-08-18T02:42:09.161Z,13.10
2022-08-18T02:44:36.649Z,14.13
2022-08-18T02:47:04.127Z,13.25
2022-08-18T02:49:31.236Z,13.73
2022-08-18T02:51:59.136Z,13.13
2022-08-18T02:54:26.636Z,13.05
2022-08-18T02:56:53.906Z,11.57
2022-08-18T02:59:26.431Z,11.40
2022-08-18T03:01:56.355Z,12.60
2022-08-18T03:04:30.802Z,11.10
2022-08-18T03:07:04.532Z,12.10
2022-08-18T03:09:34.462Z,11.75
2022-08-18T03:12:01.982Z,11.07
2022-08-18T03:14:29.735Z,11.45
2022-08-18T03:16:57.220Z,9.77
2022-08-18T03:19:28.343Z,11.38
2022-08-18T03:22:02.524Z,12.25
2022-08-18T03:24:32.621Z,11.82
2022-08-18T03:27:03.607Z,10.00
2022-08-18T03:29:32.819Z,13.15
2022-08-18T03:32:06.674Z,9.80
2022-08-18T03:34:34.914Z,9.30
2022-08-18T03:37:02.187Z,12.88
2022-08-18T03:39:29.720Z,11.45
2022-08-18T03:42:01.155Z,15.40
2022-08-18T03:44:33.365Z,9.55
2022-08-18T03:47:05.012Z,12.52
2022-08-18T03:49:33.789Z,11.82
2022-08-18T03:52:02.329Z,9.90
2022-08-18T03:54:32.292Z,11.77
2022-08-18T03:57:00.614Z,11.70
2022-08-18T03:59:30.703Z,12.30
2022-08-18T04:01:58.227Z,10.10
2022-08-18T04:04:28.294Z,11.80
2022-08-18T04:07:00.379Z,13.70
2022-08-18T04:09:30.811Z,10.63
2022-08-18T04:11:59.328Z,11.70
2022-08-18T04:14:31.018Z,12.30
2022-08-18T04:16:59.549Z,12.77
2022-08-18T04:19:27.954Z,11.60
2022-08-18T04:21:57.953Z,12.00
2022-08-18T04:24:31.898Z,12.52
2022-08-18T04:27:02.244Z,10.02
2022-08-18T04:29:29.657Z,10.95
2022-08-18T04:31:57.120Z,10.93
2022-08-18T04:34:24.469Z,12.25
2022-08-18T04:36:54.142Z,12.05
2022-08-18T04:39:22.906Z,10.60
2022-08-18T04:41:51.350Z,12.90
2022-08-18T04:44:20.071Z,12.50
2022-08-18T04:46:53.254Z,12.65
2022-08-18T04:49:26.069Z,12.00
2022-08-18T04:52:22.633Z,12.63
2022-08-18T04:55:03.015Z,11.95
2022-08-18T04:57:34.846Z,12.50
2022-08-18T05:00:03.541Z,11.75
2022-08-18T05:02:33.164Z,11.73
2022-08-18T05:05:03.368Z,13.32
2022-08-18T05:07:30.881Z,12.20
2022-08-18T05:09:58.463Z,13.00
2022-08-18T05:12:26.811Z,11.80
2022-08-18T05:14:57.186Z,13.10
2022-08-18T05:17:30.232Z,13.43
2022-08-18T05:20:01.765Z,14.63
2022-08-18T05:22:31.549Z,14.82
2022-08-18T05:25:01.024Z,17.05
2022-08-18T05:27:36.383Z,15.55
2022-08-18T05:30:06.496Z,16.23
2022-08-18T05:32:48.317Z,18.40
2022-08-18T05:35:31.174Z,16.10
2022-08-18T05:38:18.568Z,14.48
2022-08-18T05:40:46.287Z,15.63
2022-08-18T05:43:16.001Z,14.55
2022-08-18T05:45:44.140Z,15.73
2022-08-18T05:48:11.591Z,18.23
2022-08-18T05:50:38.842Z,21.08
2022-08-18T05:53:20.654Z,16.90
2022-08-18T05:56:21.943Z,16.52
2022-08-18T05:58:55.778Z,17.55
2022-08-18T06:01:41.473Z,16.50
2022-08-18T06:04:46.277Z,17.42
2022-08-18T06:07:19.471Z,17.95
2022-08-18T06:09:55.191Z,15.38
2022-08-18T06:12:33.656Z,16.95
2022-08-18T06:15:32.161Z,16.25
2022-08-18T06:18:21.044Z,16.77
2022-08-18T06:21:15.540Z,20.15
2022-08-18T06:23:57.556Z,18.45
2022-08-18T06:26:58.993Z,18.83
2022-08-18T06:29:48.006Z,17.20
2022-08-18T06:32:57.799Z,19.00
2022-08-18T06:35:45.443Z,17.00
2022-08-18T06:38:40.922Z,17.38
2022-08-18T06:41:40.508Z,17.92
2022-08-18T06:44:11.127Z,18.75
2022-08-18T06:47:09.291Z,19.25
2022-08-18T06:49:46.746Z,21.40
2022-08-18T06:52:21.187Z,20.48
2022-08-18T06:54:51.826Z,23.73
2022-08-18T06:57:39.365Z,24.13
2022-08-18T07:00:11.398Z,23.00
2022-08-18T07:02:51.011Z,23.10
2022-08-18T07:05:31.770Z,22.05
2022-08-18T07:08:18.410Z,24.20
2022-08-18T07:10:53.195Z,22.85
2022-08-18T07:13:30.144Z,21.20
2022-08-18T07:16:46.974Z,21.65
2022-08-18T07:19:17.090Z,20.25
2022-08-18T07:21:45.340Z,22.90
2022-08-18T07:24:25.857Z,22.58
2022-08-18T07:27:05.371Z,20.55
2022-08-18T07:29:37.647Z,21.13
2022-08-18T07:32:21.269Z,21.10
2022-08-18T07:34:58.485Z,18.60
2022-08-18T07:37:36.644Z,18.63
2022-08-18T07:40:20.995Z,17.73
2022-08-18T07:43:15.898Z,15.55
2022-08-18T07:45:47.976Z,15.93
2022-08-18T07:48:41.052Z,16.38
2022-08-18T07:51:33.927Z,14.95
2022-08-18T07:54:49.773Z,15.27
2022-08-18T07:57:35.305Z,15.60
2022-08-18T08:01:04.770Z,14.93
2022-08-18T08:03:47.766Z,14.05
2022-08-18T08:06:36.911Z,15.52
2022-08-18T08:12:03.031Z,14.27
2022-08-18T08:14:55.855Z,16.67
2022-08-18T08:17:32.735Z,14.80
2022-08-18T08:20:33.681Z,15.52
2022-08-18T08:23:28.900Z,15.07
2022-08-18T08:26:17.178Z,15.35
2022-08-18T08:29:15.416Z,14.68
2022-08-18T08:31:59.043Z,14.00
2022-08-18T08:34:28.922Z,14.20
2022-08-18T08:37:08.399Z,15.07
2022-08-18T08:40:01.830Z,13.40
2022-08-18T08:42:49.507Z,11.32
2022-08-18T08:45:25.585Z,11.70
2022-08-18T08:48:08.442Z,13.02
2022-08-18T08:50:49.514Z,11.30
2022-08-18T08:53:23.387Z,13.50
2022-08-18T08:56:02.032Z,12.98
2022-08-18T08:58:40.837Z,10.40
2022-08-18T09:01:27.774Z,10.40
2022-08-18T09:04:20.245Z,11.95
2022-08-18T09:07:06.077Z,9.52
2022-08-18T09:09:42.627Z,9.52
2022-08-18T09:12:45.220Z,9.30
2022-08-18T09:15:24.209Z,8.20
2022-08-18T09:21:16.042Z,8.30
2022-08-18T09:23:47.869Z,6.47
2022-08-18T09:26:42.196Z,7.38
2022-08-18T09:29:51.634Z,6.25
2022-08-18T09:32:19.057Z,7.10
2022-08-18T09:35:23.533Z,6.85
2022-08-18T09:38:40.775Z,7.95
2022-08-18T09:41:32.299Z,5.90
2022-08-18T09:44:21.266Z,6.75
2022-08-18T09:46:57.402Z,7.82
2022-08-18T09:49:27.281Z,7.82
2022-08-18T09:52:02.244Z,7.57
2022-08-18T09:54:34.188Z,6.32
2022-08-18T09:57:04.363Z,8.30
2022-08-18T09:59:38.208Z,8.45
2022-08-18T10:02:14.157Z,6.18
2022-08-18T10:04:51.464Z,7.45
2022-08-18T10:07:38.835Z,8.07
2022-08-18T10:11:02.876Z,10.25
2022-08-18T10:17:34.448Z,5.22
2022-08-18T10:20:41.306Z,8.55
2022-08-18T10:23:10.661Z,6.75
2022-08-18T10:25:48.674Z,7.72
2022-08-18T10:28:55.070Z,5.53
2022-08-18T10:31:23.875Z,5.00
2022-08-18T10:36:45.252Z,7.35
2022-08-18T10:39:41.216Z,7.75
2022-08-18T10:45:36.584Z,7.00
2022-08-18T10:48:24.424Z,8.77
2022-08-18T10:51:29.356Z,8.65
2022-08-18T10:54:54.293Z,7.40
2022-08-18T10:57:52.753Z,7.57
2022-08-18T11:00:38.665Z,10.30
2022-08-18T11:03:50.190Z,5.00
2022-08-18T11:06:27.417Z,9.05
2022-08-18T11:09:00.449Z,8.98
2022-08-18T11:11:52.842Z,6.05
2022-08-18T11:14:59.128Z,6.70
2022-08-18T11:17:55.922Z,6.40
2022-08-18T11:20:33.926Z,8.00
2022-08-18T11:23:03.497Z,5.75
2022-08-18T11:25:36.273Z,8.77
2022-08-18T11:28:15.344Z,8.40
2022-08-18T11:30:50.252Z,8.82
2022-08-18T11:36:07.162Z,8.80
2022-08-18T11:38:37.914Z,9.33
2022-08-18T11:41:19.502Z,6.85
2022-08-18T11:43:50.594Z,7.38
2022-08-18T11:49:24.162Z,7.47
2022-08-18T11:55:24.568Z,8.00
2022-08-18T11:57:59.372Z,7.10
2022-08-18T12:00:48.869Z,8.90
2022-08-18T12:07:05.636Z,7.78
2022-08-18T12:10:46.255Z,7.60
2022-08-18T12:13:46.347Z,8.25
2022-08-18T12:16:46.614Z,8.95
2022-08-18T12:19:50.106Z,7.70
2022-08-18T12:22:44.370Z,9.52
2022-08-18T12:25:43.839Z,9.00
2022-08-18T12:28:37.125Z,7.68
2022-08-18T12:31:48.098Z,9.90
2022-08-18T12:34:44.672Z,7.40
2022-08-18T12:37:58.401Z,10.77
2022-08-18T12:40:45.325Z,9.40
2022-08-18T12:43:58.656Z,8.32
2022-08-18T12:46:27.337Z,7.20
2022-08-18T12:48:55.048Z,10.60
2022-08-18T12:51:24.705Z,7.03
2022-08-18T12:53:59.929Z,7.50
2022-08-18T12:56:30.885Z,8.55
2022-08-18T12:59:05.314Z,9.52
2022-08-18T13:01:35.569Z,10.00
2022-08-18T13:04:11.387Z,8.27
2022-08-18T13:07:00.474Z,7.13
2022-08-18T13:09:47.648Z,6.77
2022-08-18T13:12:19.871Z,7.90
2022-08-18T13:14:48.185Z,9.35
2022-08-18T13:17:32.098Z,7.93
2022-08-18T13:20:10.128Z,9.32
2022-08-18T13:22:41.836Z,9.73
2022-08-18T13:25:33.263Z,7.18
2022-08-18T13:28:01.977Z,10.57
2022-08-18T13:30:32.363Z,10.77
2022-08-18T13:33:05.186Z,9.05
2022-08-18T13:38:20.810Z,7.32
2022-08-18T13:40:54.752Z,9.15
2022-08-18T13:43:31.200Z,9.95
2022-08-18T13:45:59.826Z,9.85
2022-08-18T13:48:29.887Z,10.40
2022-08-18T13:51:01.151Z,9.70
2022-08-18T13:53:31.484Z,9.95
2022-08-18T13:55:59.691Z,10.15
2022-08-18T13:58:28.602Z,9.40
2022-08-18T14:01:23.187Z,8.85
2022-08-18T14:03:53.017Z,10.38
2022-08-18T14:06:24.242Z,10.95
2022-08-18T14:08:54.121Z,8.90
2022-08-18T14:11:33.014Z,10.23
2022-08-18T14:14:02.418Z,11.23
2022-08-18T14:16:30.817Z,9.20
2022-08-18T14:19:17.641Z,10.32
2022-08-18T14:22:11.769Z,11.52
2022-08-18T14:25:00.704Z,8.60
2022-08-18T14:30:08.944Z,8.35
2022-08-18T14:32:36.967Z,6.97
2022-08-18T14:35:33.528Z,9.80
2022-08-18T14:38:02.773Z,9.40
2022-08-18T14:40:32.205Z,11.15
2022-08-18T14:42:59.666Z,8.10
2022-08-18T14:45:35.360Z,9.98
2022-08-18T14:48:07.293Z,10.40
2022-08-18T14:50:37.034Z,8.73
2022-08-18T14:53:06.509Z,8.32
2022-08-18T14:55:34.847Z,9.63
2022-08-18T14:58:04.343Z,8.68
2022-08-18T15:00:53.467Z,12.10
2022-08-18T15:03:31.118Z,8.13
2022-08-18T15:06:04.811Z,47.03
2022-08-18T15:08:37.323Z,36.45
2022-08-18T15:11:11.711Z,19.02
2022-08-18T15:13:43.563Z,13.48
2022-08-18T15:16:16.944Z,12.20
2022-08-18T15:18:46.691Z,10.00
2022-08-18T15:21:35.268Z,8.82
2022-08-18T15:24:26.765Z,7.95
2022-08-18T15:27:03.181Z,8.93
2022-08-18T15:29:34.564Z,9.32
2022-08-18T15:32:10.133Z,8.02
2022-08-18T15:34:46.909Z,8.52
2022-08-18T15:37:20.367Z,8.93
2022-08-18T15:40:02.805Z,7.65
2022-08-18T15:42:30.886Z,10.85
2022-08-18T15:45:11.507Z,9.13
2022-08-18T15:47:40.782Z,7.15
2022-08-18T15:50:25.192Z,8.17
2022-08-18T15:53:00.643Z,10.63
2022-08-18T15:55:35.933Z,11.57
2022-08-18T15:58:10.821Z,15.45
2022-08-18T16:00:45.425Z,22.65
2022-08-18T16:03:15.935Z,22.88
2022-08-18T16:05:52.975Z,20.58
2022-08-18T16:08:24.950Z,23.40
2022-08-18T16:10:54.189Z,20.80
2022-08-18T16:13:22.621Z,18.25
2022-08-18T16:15:50.414Z,14.60
2022-08-18T16:18:21.317Z,15.68
2022-08-18T16:20:50.660Z,12.98
2022-08-18T16:27:54.931Z,9.60
2022-08-18T16:30:25.968Z,12.00
2022-08-18T16:32:53.811Z,10.05
2022-08-18T16:35:23.794Z,8.65
2022-08-18T16:37:51.826Z,9.65
2022-08-18T16:40:20.295Z,10.43
2022-08-18T16:42:48.217Z,9.70
2022-08-18T16:45:21.796Z,10.65
2022-08-18T16:47:49.352Z,13.30
2022-08-18T16:50:18.268Z,11.93
2022-08-18T16:52:46.046Z,10.30
2022-08-18T16:55:13.645Z,10.70
2022-08-18T16:58:02.646Z,8.95
2022-08-18T17:00:55.105Z,13.73
2022-08-18T17:03:44.770Z,8.95
2022-08-18T17:06:15.896Z,8.55
2022-08-18T17:08:43.580Z,9.38
2022-08-18T17:11:14.789Z,9.85
2022-08-18T17:13:43.071Z,11.93
2022-08-18T17:16:14.409Z,9.77
2022-08-18T17:18:43.257Z,9.25
2022-08-18T17:21:18.317Z,9.52
2022-08-18T17:23:46.512Z,12.20
2022-08-18T17:26:17.621Z,10.32
2022-08-18T17:28:58.127Z,10.68
2022-08-18T17:31:26.065Z,9.65
2022-08-18T17:34:05.789Z,9.93
2022-08-18T17:36:52.831Z,10.35
2022-08-18T17:39:27.136Z,11.13
2022-08-18T17:42:13.697Z,11.25
2022-08-18T17:44:52.065Z,10.00
2022-08-18T17:47:27.738Z,10.38
2022-08-18T17:50:28.281Z,8.35
2022-08-18T17:53:08.278Z,9.93
2022-08-18T17:56:00.026Z,11.25
2022-08-18T17:58:43.554Z,9.52
2022-08-18T18:01:13.013Z,8.05
2022-08-18T18:03:44.152Z,10.75
2022-08-18T18:06:37.833Z,8.10
2022-08-18T18:09:20.420Z,8.45
2022-08-18T18:11:47.764Z,9.98
2022-08-18T18:14:39.648Z,10.05
2022-08-18T18:17:37.885Z,9.27
2022-08-18T18:20:39.580Z,11.90
2022-08-18T18:23:33.306Z,11.88
2022-08-18T18:26:00.596Z,11.18
2022-08-18T18:28:35.240Z,8.60
2022-08-18T18:31:25.312Z,10.35
2022-08-18T18:34:00.223Z,10.35
2022-08-18T18:36:47.083Z,11.02
2022-08-18T18:39:22.441Z,10.05
2022-08-18T18:42:21.222Z,11.30
2022-08-18T18:45:09.457Z,9.38
2022-08-18T18:47:45.514Z,10.30
2022-08-18T18:50:28.085Z,10.13
2022-08-18T18:53:10.629Z,9.10
2022-08-18T18:56:05.809Z,10.13
2022-08-18T18:58:46.148Z,10.65
2022-08-18T19:01:31.702Z,9.35
2022-08-18T19:04:10.812Z,10.23
2022-08-18T19:06:53.442Z,11.13
2022-08-18T19:09:29.699Z,12.27
2022-08-18T19:12:43.472Z,12.65
2022-08-18T19:15:19.745Z,11.75
2022-08-18T19:17:56.430Z,12.93
2022-08-18T19:20:37.387Z,12.90
2022-08-18T19:23:44.525Z,15.73
2022-08-18T19:26:27.096Z,16.05
2022-08-18T19:29:13.135Z,14.82
2022-08-18T19:32:14.554Z,16.40
2022-08-18T19:34:52.642Z,14.65
2022-08-18T19:37:53.936Z,13.32
2022-08-18T19:40:50.637Z,15.07
2022-08-18T19:43:36.672Z,14.77
2022-08-18T19:46:17.410Z,13.40
2022-08-18T19:49:02.673Z,17.73
2022-08-18T19:51:39.584Z,15.40
2022-08-18T19:54:31.351Z,15.57
2022-08-18T19:57:37.073Z,15.90
2022-08-18T20:00:16.489Z,14.52
2022-08-18T20:03:22.408Z,15.07
2022-08-18T20:06:34.787Z,13.80
2022-08-18T20:09:45.868Z,15.75
2022-08-18T20:12:45.274Z,14.20
2022-08-18T20:15:16.314Z,15.23
2022-08-18T20:17:58.827Z,15.98
2022-08-18T20:20:40.641Z,15.35
2022-08-18T20:23:37.738Z,14.32
2022-08-18T20:26:05.634Z,14.60
2022-08-18T20:28:40.639Z,15.52
2022-08-18T20:31:16.174Z,14.63
2022-08-18T20:34:14.101Z,15.55
2022-08-18T20:36:44.945Z,14.70
2022-08-18T20:39:47.096Z,15.05
2022-08-18T20:42:24.415Z,15.80
2022-08-18T20:44:57.310Z,15.50
2022-08-18T20:47:36.684Z,15.85
2022-08-18T20:50:37.022Z,15.52
2022-08-18T20:53:33.154Z,13.43
2022-08-18T20:56:45.068Z,15.70
2022-08-18T20:59:22.210Z,16.65
2022-08-18T21:02:03.215Z,15.52
2022-08-18T21:04:48.626Z,16.35
2022-08-18T21:07:34.248Z,15.60
2022-08-18T21:10:24.765Z,16.33
2022-08-18T21:12:58.999Z,17.80
2022-08-18T21:15:30.741Z,17.35
2022-08-18T21:18:01.785Z,15.35
2022-08-18T21:20:31.496Z,15.35
2022-08-18T21:23:09.296Z,16.75
2022-08-18T21:25:41.837Z,16.48
2022-08-18T21:28:09.104Z,16.33
2022-08-18T21:30:36.507Z,16.48
2022-08-18T21:33:20.857Z,15.25
2022-08-18T21:35:48.705Z,16.17
2022-08-18T21:38:28.091Z,15.15
2022-08-18T21:41:00.037Z,16.38
2022-08-18T21:43:49.048Z,14.93
2022-08-18T21:48:58.736Z,16.08
2022-08-18T21:51:31.283Z,18.20
2022-08-18T21:54:00.216Z,15.68
2022-08-18T21:56:35.425Z,15.90
2022-08-18T21:59:11.581Z,13.48
2022-08-18T22:01:52.800Z,13.85
2022-08-18T22:04:35.959Z,13.77
2022-08-18T22:07:22.010Z,14.20
2022-08-18T22:10:19.389Z,12.70
2022-08-18T22:13:14.725Z,13.38
2022-08-18T22:15:49.542Z,13.98
2022-08-18T22:18:16.708Z,15.80
2022-08-18T22:21:36.234Z,14.07
2022-08-18T22:24:19.634Z,11.93
2022-08-18T22:27:15.257Z,13.57
2022-08-18T22:29:54.982Z,13.48
2022-08-18T22:32:22.204Z,14.35
2022-08-18T22:34:50.510Z,11.27
2022-08-18T22:37:25.017Z,11.40
2022-08-18T22:40:10.272Z,13.23
2022-08-18T22:42:38.396Z,13.55
2022-08-18T22:45:12.325Z,13.35
2022-08-18T22:47:42.751Z,13.40
2022-08-18T22:54:23.128Z,13.27
2022-08-18T22:56:56.327Z,12.90
2022-08-18T22:59:26.803Z,12.32
2022-08-18T23:04:25.313Z,12.55
2022-08-18T23:06:54.773Z,14.20
2022-08-18T23:09:27.665Z,15.05
2022-08-18T23:11:58.392Z,13.77
2022-08-18T23:14:26.701Z,13.27
2022-08-18T23:16:54.090Z,13.80
2022-08-18T23:19:22.009Z,14.65
2022-08-18T23:21:49.945Z,15.02
2022-08-18T23:24:19.015Z,13.82
2022-08-18T23:26:46.985Z,14.07
2022-08-18T23:29:14.938Z,14.45
2022-08-18T23:31:44.494Z,13.57
2022-08-18T23:34:14.999Z,15.45
2022-08-18T23:36:45.568Z,15.38
2022-08-18T23:39:14.559Z,14.85
2022-08-18T23:41:42.317Z,16.27
2022-08-18T23:44:10.605Z,15.68
2022-08-18T23:46:37.901Z,15.60
2022-08-18T23:49:10.752Z,14.35
2022-08-18T23:51:48.977Z,15.02
2022-08-18T23:54:28.426Z,16.23
2022-08-18T23:56:56.341Z,16.95
2022-08-18T23:59:25.790Z,16.83
